createdAt,value
2023-07-17T00:00:07.213Z,9.13
2023-07-17T00:02:34.264Z,9.33
2023-07-17T00:05:00.748Z,12.77
2023-07-17T00:07:27.286Z,9.50
2023-07-17T00:09:53.910Z,11.20
2023-07-17T00:12:20.473Z,12.30
2023-07-17T00:14:46.882Z,8.93
2023-07-17T00:17:14.440Z,10.67
2023-07-17T00:19:41.041Z,15.60
2023-07-17T00:22:08.267Z,10.87
2023-07-17T00:24:35.130Z,10.53
2023-07-17T00:27:02.608Z,9.53
2023-07-17T00:29:32.180Z,10.33
2023-07-17T00:31:58.680Z,10.27
2023-07-17T00:34:25.379Z,12.10
2023-07-17T00:36:52.324Z,8.93
2023-07-17T00:39:22.066Z,11.17
2023-07-17T00:41:50.860Z,9.87
2023-07-17T00:44:18.319Z,11.90
2023-07-17T00:46:45.173Z,9.50
2023-07-17T00:49:12.785Z,9.70
2023-07-17T00:51:40.545Z,11.17
2023-07-17T00:54:09.009Z,10.30
2023-07-17T00:56:35.726Z,9.93
2023-07-17T00:59:05.928Z,9.73
2023-07-17T01:01:33.869Z,11.60
2023-07-17T01:04:03.231Z,10.43
2023-07-17T01:06:29.704Z,12.90
2023-07-17T01:08:56.075Z,9.63
2023-07-17T01:11:22.462Z,10.43
2023-07-17T01:13:50.304Z,12.83
2023-07-17T01:16:17.025Z,10.73
2023-07-17T01:18:43.914Z,12.07
2023-07-17T01:21:13.551Z,10.60
2023-07-17T01:23:40.311Z,10.47
2023-07-17T01:26:14.750Z,10.23
2023-07-17T01:28:41.665Z,11.00
2023-07-17T01:31:08.460Z,13.80
2023-07-17T01:33:35.711Z,10.40
2023-07-17T01:36:03.128Z,11.50
2023-07-17T01:38:29.526Z,12.80
2023-07-17T01:40:55.927Z,9.80
2023-07-17T01:43:22.612Z,10.97
2023-07-17T01:45:49.299Z,8.87
2023-07-17T01:48:15.956Z,11.93
2023-07-17T01:50:42.670Z,13.23
2023-07-17T01:53:09.106Z,12.17
2023-07-17T01:55:35.523Z,13.90
2023-07-17T01:58:01.959Z,12.20
2023-07-17T02:00:28.455Z,10.57
2023-07-17T02:02:55.161Z,11.63
2023-07-17T02:05:22.076Z,13.17
2023-07-17T02:07:48.572Z,9.93
2023-07-17T02:10:14.932Z,15.03
2023-07-17T02:12:41.324Z,13.97
2023-07-17T02:15:08.107Z,10.67
2023-07-17T02:17:34.469Z,10.33
2023-07-17T02:20:00.826Z,11.30
2023-07-17T02:22:29.019Z,12.30
2023-07-17T02:24:55.629Z,12.77
2023-07-17T02:27:22.037Z,10.80
2023-07-17T02:29:48.900Z,12.53
2023-07-17T02:32:15.324Z,10.07
2023-07-17T02:34:41.728Z,12.97
2023-07-17T02:37:11.929Z,13.87
2023-07-17T02:39:38.325Z,12.23
2023-07-17T02:42:05.113Z,12.67
2023-07-17T02:44:31.491Z,13.57
2023-07-17T02:46:57.850Z,12.90
2023-07-17T02:49:24.193Z,10.67
2023-07-17T02:51:50.553Z,10.97
2023-07-17T02:54:16.943Z,18.30
2023-07-17T02:56:43.326Z,11.03
2023-07-17T02:59:09.682Z,12.03
2023-07-17T03:01:36.247Z,8.90
2023-07-17T03:04:02.804Z,11.63
2023-07-17T03:06:29.219Z,11.07
2023-07-17T03:08:55.623Z,12.53
2023-07-17T03:11:21.976Z,14.67
2023-07-17T03:13:48.363Z,12.30
2023-07-17T03:16:14.957Z,14.40
2023-07-17T03:18:41.337Z,16.03
2023-07-17T03:21:07.694Z,12.53
2023-07-17T03:23:34.038Z,11.17
2023-07-17T03:26:00.448Z,16.33
2023-07-17T03:28:26.909Z,12.83
2023-07-17T03:30:53.389Z,12.50
2023-07-17T03:33:19.833Z,11.47
2023-07-17T03:35:46.276Z,11.37
2023-07-17T03:38:12.659Z,10.83
2023-07-17T03:40:39.093Z,15.40
2023-07-17T03:43:05.479Z,13.13
2023-07-17T03:45:31.931Z,12.33
2023-07-17T03:47:58.334Z,11.70
2023-07-17T03:50:24.721Z,12.43
2023-07-17T03:52:51.409Z,11.67
2023-07-17T03:55:17.794Z,14.37
2023-07-17T03:57:44.114Z,12.43
2023-07-17T04:00:14.513Z,11.60
2023-07-17T04:02:42.813Z,10.80
2023-07-17T04:05:09.519Z,11.83
2023-07-17T04:07:35.860Z,9.93
2023-07-17T04:10:02.596Z,13.00
2023-07-17T04:12:29.040Z,10.70
2023-07-17T04:14:55.399Z,12.70
2023-07-17T04:17:21.882Z,11.10
2023-07-17T04:19:48.528Z,10.83
2023-07-17T04:22:14.918Z,12.90
2023-07-17T04:24:41.313Z,11.50
2023-07-17T04:27:07.671Z,11.17
2023-07-17T04:29:34.027Z,11.50
2023-07-17T04:32:00.428Z,11.53
2023-07-17T04:34:26.824Z,9.90
2023-07-17T04:36:53.148Z,12.23
2023-07-17T04:39:19.625Z,10.47
2023-07-17T04:41:46.006Z,10.97
2023-07-17T04:44:12.514Z,13.57
2023-07-17T04:46:38.952Z,12.40
2023-07-17T04:49:05.587Z,10.30
2023-07-17T04:51:31.997Z,11.10
2023-07-17T04:53:58.376Z,12.33
2023-07-17T04:56:24.743Z,9.53
2023-07-17T04:58:51.200Z,11.17
2023-07-17T05:01:17.751Z,13.07
2023-07-17T05:03:44.452Z,11.37
2023-07-17T05:06:10.955Z,13.07
2023-07-17T05:08:37.359Z,12.53
2023-07-17T05:11:05.472Z,10.07
2023-07-17T05:13:31.876Z,12.17
2023-07-17T05:15:58.367Z,12.87
2023-07-17T05:18:24.790Z,13.27
2023-07-17T05:20:52.406Z,13.17
2023-07-17T05:23:19.264Z,11.93
2023-07-17T05:25:57.396Z,13.53
2023-07-17T05:28:24.230Z,12.27
2023-07-17T05:30:54.589Z,14.97
2023-07-17T05:33:22.041Z,12.63
2023-07-17T05:35:48.876Z,14.83
2023-07-17T05:38:15.300Z,15.67
2023-07-17T05:40:41.996Z,13.17
2023-07-17T05:43:09.535Z,8.50
2023-07-17T05:45:36.351Z,11.93
2023-07-17T05:48:03.803Z,10.53
2023-07-17T05:50:30.268Z,14.17
2023-07-17T05:52:56.671Z,10.53
2023-07-17T05:55:23.077Z,14.50
2023-07-17T05:57:49.418Z,12.17
2023-07-17T06:00:16.159Z,10.67
2023-07-17T06:02:43.889Z,10.90
2023-07-17T06:05:11.717Z,11.30
2023-07-17T06:07:38.849Z,10.17
2023-07-17T06:10:06.771Z,9.93
2023-07-17T06:12:33.139Z,12.33
2023-07-17T06:14:59.488Z,14.10
2023-07-17T06:17:26.050Z,12.03
2023-07-17T06:19:52.445Z,10.20
2023-07-17T06:22:19.071Z,10.73
2023-07-17T06:24:45.658Z,14.03
2023-07-17T06:27:12.117Z,10.03
2023-07-17T06:29:38.473Z,12.80
2023-07-17T06:32:05.407Z,7.47
2023-07-17T06:34:32.274Z,10.23
2023-07-17T06:36:58.639Z,9.40
2023-07-17T06:39:25.040Z,9.90
2023-07-17T06:41:51.456Z,9.93
2023-07-17T06:44:17.895Z,9.60
2023-07-17T06:46:44.284Z,8.47
2023-07-17T06:49:10.763Z,11.00
2023-07-17T06:51:37.178Z,10.63
2023-07-17T06:54:03.573Z,8.77
2023-07-17T06:56:29.944Z,10.27
2023-07-17T06:58:58.761Z,10.60
2023-07-17T07:01:25.266Z,7.93
2023-07-17T07:03:51.847Z,8.87
2023-07-17T07:06:18.606Z,12.57
2023-07-17T07:08:45.197Z,10.70
2023-07-17T07:11:11.789Z,11.48
2023-07-17T07:13:38.437Z,12.15
2023-07-17T07:16:05.173Z,11.20
2023-07-17T07:18:31.654Z,10.45
2023-07-17T07:20:58.069Z,8.57
2023-07-17T07:23:24.461Z,8.80
2023-07-17T07:25:51.049Z,8.50
2023-07-17T07:28:17.480Z,7.25
2023-07-17T07:30:43.864Z,8.50
2023-07-17T07:33:10.396Z,8.80
2023-07-17T07:35:36.780Z,7.50
2023-07-17T07:38:03.229Z,10.90
2023-07-17T07:40:29.747Z,14.40
2023-07-17T07:42:56.165Z,12.73
2023-07-17T07:45:22.544Z,11.05
2023-07-17T07:47:49.013Z,8.60
2023-07-17T07:50:15.486Z,9.75
2023-07-17T07:52:42.046Z,10.57
2023-07-17T07:55:10.939Z,7.20
2023-07-17T07:57:37.704Z,6.63
2023-07-17T08:00:04.953Z,7.78
2023-07-17T08:02:31.376Z,8.40
2023-07-17T08:04:57.929Z,9.18
2023-07-17T08:07:24.326Z,7.03
2023-07-17T08:09:50.732Z,9.27
2023-07-17T08:12:17.205Z,9.80
2023-07-17T08:14:43.716Z,6.57
2023-07-17T08:17:10.149Z,10.55
2023-07-17T08:19:36.589Z,7.30
2023-07-17T08:22:03.109Z,9.85
2023-07-17T08:24:29.512Z,8.30
2023-07-17T08:26:56.739Z,9.15
2023-07-17T08:29:23.214Z,8.88
2023-07-17T08:31:49.621Z,9.85
2023-07-17T08:34:18.210Z,6.63
2023-07-17T08:36:44.635Z,7.78
2023-07-17T08:39:10.979Z,7.57
2023-07-17T08:41:37.493Z,6.65
2023-07-17T08:44:04.338Z,7.28
2023-07-17T08:46:31.356Z,8.35
2023-07-17T08:48:58.056Z,6.93
2023-07-17T08:51:27.572Z,7.75
2023-07-17T08:54:13.364Z,6.47
2023-07-17T08:56:45.468Z,7.22
2023-07-17T08:59:12.567Z,8.40
2023-07-17T09:01:40.056Z,7.88
2023-07-17T09:04:07.565Z,8.27
2023-07-17T09:06:33.955Z,9.90
2023-07-17T09:09:01.234Z,8.48
2023-07-17T09:11:27.662Z,7.43
2023-07-17T09:13:54.055Z,5.95
2023-07-17T09:16:22.479Z,8.73
2023-07-17T09:18:50.837Z,6.68
2023-07-17T09:21:19.234Z,5.63
2023-07-17T09:23:47.831Z,7.90
2023-07-17T09:26:18.919Z,6.60
2023-07-17T09:28:52.086Z,4.65
2023-07-17T09:31:29.499Z,6.38
2023-07-17T09:34:13.316Z,7.47
2023-07-17T09:36:39.758Z,5.70
2023-07-17T09:39:06.877Z,5.22
2023-07-17T09:41:33.255Z,6.90
2023-07-17T09:44:01.195Z,6.88
2023-07-17T09:46:29.383Z,6.55
2023-07-17T09:48:57.014Z,6.72
2023-07-17T09:51:24.150Z,5.57
2023-07-17T09:53:50.626Z,5.97
2023-07-17T09:56:19.424Z,6.18
2023-07-17T09:58:52.222Z,5.70
2023-07-17T10:01:20.837Z,4.70
2023-07-17T10:03:49.288Z,5.47
2023-07-17T10:06:18.414Z,5.15
2023-07-17T10:08:51.390Z,7.18
2023-07-17T10:11:19.371Z,7.60
2023-07-17T10:13:48.400Z,4.63
2023-07-17T10:16:18.669Z,4.15
2023-07-17T10:18:56.157Z,12.00
2023-07-17T10:21:23.588Z,4.35
2023-07-17T10:23:51.767Z,4.15
2023-07-17T10:26:21.346Z,7.30
2023-07-17T10:28:54.043Z,4.32
2023-07-17T10:31:23.458Z,5.65
2023-07-17T10:34:02.881Z,4.95
2023-07-17T10:36:43.472Z,6.50
2023-07-17T10:39:16.957Z,6.00
2023-07-17T10:41:43.465Z,5.63
2023-07-17T10:44:19.525Z,5.35
2023-07-17T10:46:47.137Z,3.03
2023-07-17T10:49:16.929Z,5.50
2023-07-17T10:51:48.766Z,4.78
2023-07-17T10:54:16.447Z,4.70
2023-07-17T10:56:46.573Z,5.18
2023-07-17T10:59:14.897Z,5.75
2023-07-17T11:01:41.432Z,3.00
2023-07-17T11:04:10.825Z,4.88
2023-07-17T11:06:37.777Z,7.32
2023-07-17T11:09:04.394Z,4.28
2023-07-17T11:11:33.095Z,7.07
2023-07-17T11:14:00.429Z,3.88
2023-07-17T11:16:26.920Z,6.72
2023-07-17T11:18:55.490Z,5.03
2023-07-17T11:21:24.110Z,2.78
2023-07-17T11:23:53.075Z,4.75
2023-07-17T11:26:22.584Z,5.50
2023-07-17T11:28:51.626Z,5.13
2023-07-17T11:31:21.813Z,5.43
2023-07-17T11:33:57.844Z,4.50
2023-07-17T11:36:32.475Z,3.35
2023-07-17T11:39:15.828Z,5.32
2023-07-17T11:41:57.373Z,4.43
2023-07-17T11:44:26.228Z,3.92
2023-07-17T11:47:07.077Z,4.80
2023-07-17T11:49:36.793Z,4.90
2023-07-17T11:52:03.342Z,3.85
2023-07-17T11:54:50.273Z,3.92
2023-07-17T11:57:16.929Z,4.93
2023-07-17T11:59:47.072Z,5.53
2023-07-17T12:02:13.599Z,3.72
2023-07-17T12:04:41.238Z,4.72
2023-07-17T12:07:17.861Z,3.88
2023-07-17T12:09:44.255Z,3.22
2023-07-17T12:12:10.709Z,4.10
2023-07-17T12:14:37.171Z,4.22
2023-07-17T12:17:03.753Z,4.20
2023-07-17T12:19:30.128Z,5.95
2023-07-17T12:21:56.476Z,4.63
2023-07-17T12:24:22.912Z,3.50
2023-07-17T12:26:49.290Z,3.67
2023-07-17T12:29:15.675Z,3.75
2023-07-17T12:31:42.154Z,3.70
2023-07-17T12:34:09.449Z,6.40
2023-07-17T12:36:36.185Z,5.07
2023-07-17T12:39:16.269Z,5.63
2023-07-17T12:41:43.560Z,5.28
2023-07-17T12:44:11.209Z,5.18
2023-07-17T12:46:37.609Z,4.78
2023-07-17T12:49:04.049Z,6.35
2023-07-17T12:51:30.434Z,3.75
2023-07-17T12:53:56.901Z,3.83
2023-07-17T12:56:26.762Z,5.78
2023-07-17T12:58:54.613Z,4.10
2023-07-17T13:01:21.438Z,5.72
2023-07-17T13:03:48.936Z,5.15
2023-07-17T13:06:16.363Z,6.03
2023-07-17T13:08:42.838Z,4.40
2023-07-17T13:11:09.367Z,5.30
2023-07-17T13:13:35.796Z,3.88
2023-07-17T13:16:02.205Z,4.22
2023-07-17T13:18:28.590Z,3.95
2023-07-17T13:20:55.108Z,3.30
2023-07-17T13:23:21.538Z,4.82
2023-07-17T13:25:47.922Z,5.07
2023-07-17T13:28:14.296Z,4.75
2023-07-17T13:30:43.469Z,4.03
2023-07-17T13:33:16.001Z,5.35
2023-07-17T13:35:42.412Z,4.65
2023-07-17T13:38:08.753Z,5.68
2023-07-17T13:40:35.132Z,5.53
2023-07-17T13:43:01.956Z,5.72
2023-07-17T13:45:28.356Z,4.20
2023-07-17T13:47:54.922Z,3.30
2023-07-17T13:50:22.311Z,4.07
2023-07-17T13:52:49.048Z,3.78
2023-07-17T13:55:15.645Z,6.68
2023-07-17T13:57:42.001Z,4.68
2023-07-17T14:00:09.099Z,3.70
2023-07-17T14:02:35.618Z,4.13
2023-07-17T14:05:05.701Z,6.82
2023-07-17T14:07:32.056Z,4.93
2023-07-17T14:09:58.401Z,3.75
2023-07-17T14:12:24.868Z,4.45
2023-07-17T14:14:52.003Z,3.97
2023-07-17T14:17:18.342Z,3.15
2023-07-17T14:19:45.042Z,4.53
2023-07-17T14:22:11.385Z,6.18
2023-07-17T14:24:37.784Z,6.78
2023-07-17T14:27:04.478Z,6.25
2023-07-17T14:29:31.189Z,5.18
2023-07-17T14:31:57.725Z,3.17
2023-07-17T14:34:26.803Z,4.93
2023-07-17T14:36:53.212Z,4.20
2023-07-17T14:39:20.713Z,5.30
2023-07-17T14:41:47.721Z,4.78
2023-07-17T14:44:14.109Z,3.63
2023-07-17T14:46:40.454Z,4.38
2023-07-17T14:49:06.843Z,4.03
2023-07-17T14:51:33.218Z,5.55
2023-07-17T14:53:59.836Z,7.55
2023-07-17T14:56:26.210Z,6.35
2023-07-17T14:58:52.576Z,5.25
2023-07-17T15:01:19.026Z,9.88
2023-07-17T15:03:45.492Z,4.78
2023-07-17T15:06:12.851Z,2.63
2023-07-17T15:08:39.557Z,5.40
2023-07-17T15:11:05.970Z,3.95
2023-07-17T15:13:37.481Z,5.28
2023-07-17T15:16:05.069Z,3.35
2023-07-17T15:18:31.843Z,5.03
2023-07-17T15:20:58.528Z,3.45
2023-07-17T15:23:24.861Z,4.63
2023-07-17T15:25:51.382Z,4.90
2023-07-17T15:28:17.772Z,4.90
2023-07-17T15:30:45.232Z,4.88
2023-07-17T15:33:12.142Z,4.00
2023-07-17T15:35:40.207Z,3.30
2023-07-17T15:38:06.686Z,5.25
2023-07-17T15:40:33.078Z,4.43
2023-07-17T15:42:59.407Z,5.70
2023-07-17T15:45:28.676Z,6.40
2023-07-17T15:47:55.079Z,5.93
2023-07-17T15:50:21.452Z,3.95
2023-07-17T15:52:47.850Z,4.15
2023-07-17T15:55:14.210Z,7.82
2023-07-17T15:57:40.622Z,4.30
2023-07-17T16:00:07.874Z,2.72
2023-07-17T16:02:34.319Z,8.73
2023-07-17T16:05:01.468Z,4.10
2023-07-17T16:07:28.156Z,3.58
2023-07-17T16:09:54.542Z,3.10
2023-07-17T16:12:23.937Z,3.92
2023-07-17T16:14:51.037Z,4.13
2023-07-17T16:17:17.602Z,5.03
2023-07-17T16:19:46.502Z,3.83
2023-07-17T16:22:14.055Z,5.35
2023-07-17T16:24:40.388Z,3.40
2023-07-17T16:27:07.398Z,2.47
2023-07-17T16:29:33.925Z,4.22
2023-07-17T16:32:00.277Z,4.72
2023-07-17T16:34:26.619Z,4.43
2023-07-17T16:36:52.990Z,3.28
2023-07-17T16:39:19.360Z,2.40
2023-07-17T16:41:45.767Z,3.05
2023-07-17T16:44:12.207Z,4.38
2023-07-17T16:46:38.830Z,4.97
2023-07-17T16:49:05.237Z,4.38
2023-07-17T16:51:31.592Z,3.60
2023-07-17T16:53:57.957Z,2.67
2023-07-17T16:56:24.410Z,3.80
2023-07-17T16:58:50.837Z,2.40
2023-07-17T17:01:17.813Z,5.68
2023-07-17T17:03:44.357Z,4.38
2023-07-17T17:06:10.973Z,2.53
2023-07-17T17:08:37.452Z,3.58
2023-07-17T17:11:03.916Z,3.40
2023-07-17T17:13:30.328Z,4.50
2023-07-17T17:15:57.608Z,2.75
2023-07-17T17:18:23.988Z,3.83
2023-07-17T17:20:51.062Z,5.50
2023-07-17T17:23:18.026Z,3.28
2023-07-17T17:25:44.608Z,3.17
2023-07-17T17:28:11.131Z,2.53
2023-07-17T17:30:37.697Z,3.17
2023-07-17T17:33:06.451Z,2.50
2023-07-17T17:35:33.026Z,3.95
2023-07-17T17:37:59.440Z,2.70
2023-07-17T17:40:25.875Z,3.60
2023-07-17T17:42:52.223Z,2.83
2023-07-17T17:45:18.590Z,2.47
2023-07-17T17:47:45.088Z,3.40
2023-07-17T17:50:11.824Z,2.17
2023-07-17T17:52:38.201Z,4.40
2023-07-17T17:55:05.115Z,3.58
2023-07-17T17:57:31.470Z,4.70
2023-07-17T17:59:57.870Z,3.53
2023-07-17T18:02:24.426Z,3.78
2023-07-17T18:04:50.876Z,1.73
2023-07-17T18:07:17.392Z,1.90
2023-07-17T18:09:43.800Z,2.80
2023-07-17T18:12:10.270Z,4.15
2023-07-17T18:14:36.622Z,3.92
2023-07-17T18:17:03.015Z,3.13
2023-07-17T18:19:38.593Z,2.95
2023-07-17T18:22:06.752Z,4.68
2023-07-17T18:24:33.535Z,6.03
2023-07-17T18:27:01.368Z,5.63
2023-07-17T18:29:27.866Z,4.70
2023-07-17T18:31:54.288Z,2.17
2023-07-17T18:34:20.816Z,3.05
2023-07-17T18:36:47.200Z,3.63
2023-07-17T18:39:15.624Z,3.42
2023-07-17T18:41:43.597Z,2.47
2023-07-17T18:44:21.792Z,2.67
2023-07-17T18:46:48.188Z,4.63
2023-07-17T18:49:14.965Z,2.45
2023-07-17T18:51:41.366Z,2.90
2023-07-17T18:54:08.416Z,2.33
2023-07-17T18:56:38.024Z,5.40
2023-07-17T18:59:17.830Z,2.33
2023-07-17T19:01:58.394Z,4.60
2023-07-17T19:04:28.216Z,2.65
2023-07-17T19:06:54.789Z,2.45
2023-07-17T19:09:25.794Z,4.25
2023-07-17T19:11:53.228Z,2.30
2023-07-17T19:14:19.627Z,3.38
2023-07-17T19:16:46.151Z,3.72
2023-07-17T19:19:13.633Z,3.22
2023-07-17T19:21:44.663Z,4.90
2023-07-17T19:24:11.008Z,2.63
2023-07-17T19:26:37.348Z,2.40
2023-07-17T19:29:04.394Z,2.58
2023-07-17T19:31:30.931Z,4.78
2023-07-17T19:33:57.494Z,3.25
2023-07-17T19:36:24.418Z,2.45
2023-07-17T19:38:51.048Z,3.10
2023-07-17T19:41:17.946Z,2.80
2023-07-17T19:43:44.569Z,2.53
2023-07-17T19:46:12.747Z,3.38
2023-07-17T19:48:39.386Z,4.22
2023-07-17T19:51:06.114Z,5.43
2023-07-17T19:53:32.477Z,2.53
2023-07-17T19:56:00.676Z,3.17
2023-07-17T19:58:28.069Z,2.22
2023-07-17T20:00:54.508Z,2.78
2023-07-17T20:03:20.975Z,3.47
2023-07-17T20:05:47.479Z,2.58
2023-07-17T20:08:13.859Z,3.40
2023-07-17T20:10:40.231Z,6.10
2023-07-17T20:13:08.996Z,3.28
2023-07-17T20:15:35.595Z,4.72
2023-07-17T20:18:02.051Z,4.90
2023-07-17T20:20:29.182Z,3.67
2023-07-17T20:22:55.612Z,4.72
2023-07-17T20:25:23.108Z,4.63
2023-07-17T20:27:49.503Z,5.47
2023-07-17T20:30:17.127Z,3.58
2023-07-17T20:32:43.895Z,6.90
2023-07-17T20:35:26.736Z,4.27
2023-07-17T20:37:54.451Z,5.43
2023-07-17T20:40:21.547Z,5.13
2023-07-17T20:42:50.052Z,9.73
2023-07-17T20:45:19.338Z,7.87
2023-07-17T20:47:46.025Z,6.50
2023-07-17T20:50:13.498Z,7.43
2023-07-17T20:52:44.769Z,18.77
2023-07-17T20:55:12.246Z,24.70
2023-07-17T20:57:38.673Z,12.23
2023-07-17T21:00:08.595Z,19.27
2023-07-17T21:02:35.394Z,18.20
2023-07-17T21:05:01.785Z,11.17
2023-07-17T21:07:28.199Z,8.23
2023-07-17T21:09:55.406Z,9.93
2023-07-17T21:12:22.051Z,9.97
2023-07-17T21:14:48.492Z,9.00
2023-07-17T21:17:14.928Z,4.90
2023-07-17T21:19:41.388Z,7.93
2023-07-17T21:22:07.784Z,5.37
2023-07-17T21:24:34.262Z,6.97
2023-07-17T21:27:00.941Z,5.93
2023-07-17T21:29:27.314Z,6.53
2023-07-17T21:31:53.736Z,8.43
2023-07-17T21:34:20.229Z,4.53
2023-07-17T21:36:46.619Z,6.77
2023-07-17T21:39:12.968Z,7.20
2023-07-17T21:41:39.368Z,5.97
2023-07-17T21:44:05.701Z,4.73
2023-07-17T21:46:32.136Z,8.03
2023-07-17T21:48:58.528Z,4.20
2023-07-17T21:51:24.908Z,7.30
2023-07-17T21:53:51.330Z,6.87
2023-07-17T21:56:17.874Z,6.87
2023-07-17T21:58:44.280Z,6.20
2023-07-17T22:01:13.277Z,4.77
2023-07-17T22:03:39.833Z,6.50
2023-07-17T22:06:06.263Z,4.87
2023-07-17T22:08:32.756Z,4.73
2023-07-17T22:10:59.274Z,6.70
2023-07-17T22:13:26.090Z,5.67
2023-07-17T22:15:52.443Z,4.67
2023-07-17T22:18:29.731Z,4.10
2023-07-17T22:20:58.518Z,6.37
2023-07-17T22:23:24.944Z,6.37
2023-07-17T22:25:51.384Z,5.47
2023-07-17T22:28:17.831Z,5.77
2023-07-17T22:30:44.317Z,5.87
2023-07-17T22:33:10.746Z,6.93
2023-07-17T22:35:37.173Z,4.97
2023-07-17T22:38:04.815Z,4.20
2023-07-17T22:40:32.481Z,7.27
2023-07-17T22:42:58.865Z,4.13
2023-07-17T22:45:25.234Z,5.67
2023-07-17T22:47:51.766Z,5.13
2023-07-17T22:50:18.195Z,4.50
2023-07-17T22:52:44.590Z,5.90
2023-07-17T22:55:10.987Z,6.33
2023-07-17T22:57:38.173Z,3.93
2023-07-17T23:00:05.528Z,3.73
2023-07-17T23:02:31.933Z,6.67
2023-07-17T23:04:58.454Z,4.23
2023-07-17T23:07:24.845Z,4.77
2023-07-17T23:09:51.264Z,4.97
2023-07-17T23:15:01.858Z,4.43
2023-07-17T23:17:28.291Z,5.17
2023-07-17T23:19:55.492Z,4.77
2023-07-17T23:22:21.955Z,3.33
2023-07-17T23:24:48.435Z,4.70
2023-07-17T23:27:14.838Z,3.87
2023-07-17T23:29:41.272Z,5.50
2023-07-17T23:32:08.553Z,5.63
2023-07-17T23:34:35.650Z,5.00
2023-07-17T23:37:04.432Z,4.10
2023-07-17T23:39:31.077Z,4.03
2023-07-17T23:41:57.502Z,7.03
2023-07-17T23:44:24.929Z,6.30
2023-07-17T23:46:51.377Z,5.33
2023-07-17T23:49:17.968Z,4.07
2023-07-17T23:51:44.650Z,5.10
2023-07-17T23:54:11.099Z,5.90
2023-07-17T23:56:39.434Z,6.03
2023-07-17T23:59:06.385Z,4.83
